Terminal Aerodrome Forecast
Issued by NWS

Home | Current Version | Previous Version | Text Only | Print | Product List | Glossary On
Versions: 1 2 3 4 5 6 7 8 9 10 11 12 13 14 15 16 17 18 19 20 21 22 23 24
019
FTUS42 KGSP 210537
TAFGMU
TAF
KGMU 210537Z 2106/2206 09003KT P6SM BKN014 OVC040
     FM210800 14004KT 5SM BR VCSH OVC013
     FM210900 15004KT 3SM BR VCSH OVC008
     FM211300 17005KT 4SM BR OVC006
     FM211500 20005KT P6SM OVC007
     FM211700 20006KT P6SM BKN035
     FM220400 16004KT 5SM BR BKN011=

USA.gov is the U.S. government's official web portal to all federal, state and local government web resources and services.